Time;durP1;ratioP1;P1;durP2;ratioP2;P2;SDS_P1;SDS_P2;PMS_P1;PMS_P2;Temp;Humidity;BMP_temperature;BMP_pressure;BME280_temperature;BME280_humidity;BME280_pressure;Samples;Min_cycle;Max_cycle;Signal;HPM_P1;HPM_P2
2023/03/23 00:02:00;;;;;;;5.82;1.00;;;22.40;41.60;;;;;;5123251;28;20074;-63
2023/03/23 00:04:29;;;;;;;3.70;0.98;;;22.30;41.50;;;;;;5122306;28;20120;-63
2023/03/23 00:06:55;;;;;;;9.15;1.58;;;22.30;41.90;;;;;;5119472;28;20489;-65
2023/03/23 00:09:23;;;;;;;6.30;1.10;;;22.30;41.40;;;;;;5120736;28;20094;-66
2023/03/23 00:11:51;;;;;;;4.30;1.20;;;22.10;41.70;;;;;;5120987;28;20135;-63
2023/03/23 00:14:22;;;;;;;23.35;11.63;;;22.00;42.30;;;;;;5102589;28;20162;-64
2023/03/23 00:16:50;;;;;;;23.33;11.38;;;22.00;42.50;;;;;;5124112;28;20066;-65
2023/03/23 00:19:19;;;;;;;6.43;1.27;;;22.00;41.90;;;;;;5102633;27;20063;-64
2023/03/23 00:21:46;;;;;;;11.40;1.70;;;21.80;42.40;;;;;;5108038;27;20099;-63
2023/03/23 00:24:17;;;;;;;8.68;1.83;;;21.70;43.00;;;;;;5124079;27;20069;-65
2023/03/23 00:26:46;;;;;;;5.88;1.23;;;21.70;42.70;;;;;;5118619;27;20067;-64
2023/03/23 00:29:14;;;;;;;5.60;1.48;;;21.60;42.60;;;;;;5121587;27;20085;-63
2023/03/23 00:31:46;;;;;;;21.40;1.92;;;21.60;42.90;;;;;;5107520;27;20075;-60
2023/03/23 00:34:19;;;;;;;4.88;1.38;;;21.40;42.90;;;;;;5121789;27;20075;-64
2023/03/23 00:36:48;;;;;;;6.72;1.55;;;21.40;43.10;;;;;;5122079;27;20175;-62
2023/03/23 00:39:16;;;;;;;6.72;1.58;;;21.10;43.70;;;;;;5122717;27;20059;-63
2023/03/23 00:41:46;;;;;;;5.63;1.38;;;20.90;44.10;;;;;;5122414;27;20066;-61
2023/03/23 00:44:16;;;;;;;12.63;2.03;;;20.90;44.30;;;;;;5108516;27;20135;-62
2023/03/23 00:46:48;;;;;;;5.32;1.58;;;20.80;44.70;;;;;;5120396;27;20059;-62
2023/03/23 00:49:18;;;;;;;4.38;1.50;;;20.80;44.70;;;;;;5112970;27;20555;-66
2023/03/23 00:51:45;;;;;;;3.95;1.30;;;20.60;44.60;;;;;;5120185;27;20071;-64
2023/03/23 00:54:12;;;;;;;4.53;1.38;;;20.60;44.80;;;;;;5123904;27;20070;-60
2023/03/23 00:56:39;;;;;;;4.30;1.20;;;20.50;44.30;;;;;;5116898;27;20127;-62
2023/03/23 00:59:06;;;;;;;5.50;1.42;;;20.50;44.70;;;;;;5117458;27;20077;-63
2023/03/23 01:01:33;;;;;;;8.93;1.42;;;20.40;44.70;;;;;;5117237;27;20120;-61
2023/03/23 01:04:03;;;;;;;10.27;6.25;;;20.30;44.70;;;;;;5120021;27;20074;-62
2023/03/23 01:06:32;;;;;;;4.82;1.70;;;20.30;44.90;;;;;;5122564;27;20071;-63
2023/03/23 01:09:00;;;;;;;15.40;2.95;;;20.30;45.10;;;;;;5126504;27;20143;-62
2023/03/23 01:11:27;;;;;;;5.10;1.10;;;20.20;45.00;;;;;;5120942;27;20075;-63
2023/03/23 01:13:53;;;;;;;3.45;1.30;;;20.20;45.30;;;;;;5123319;27;20153;-63
2023/03/23 01:16:20;;;;;;;5.93;1.40;;;20.10;45.40;;;;;;5126415;27;20086;-64
2023/03/23 01:18:46;;;;;;;6.18;1.40;;;20.00;45.30;;;;;;5122713;27;20083;-64
2023/03/23 01:21:18;;;;;;;9.05;1.45;;;19.90;45.60;;;;;;5129165;27;20604;-62
2023/03/23 01:23:45;;;;;;;8.38;1.35;;;19.80;46.00;;;;;;5123678;27;20086;-62
2023/03/23 01:26:17;;;;;;;7.55;1.30;;;19.70;46.00;;;;;;5126952;27;20118;-65
2023/03/23 01:28:44;;;;;;;7.05;1.48;;;19.60;46.40;;;;;;5125813;27;20079;-59
2023/03/23 01:31:17;;;;;;;5.57;1.23;;;19.40;46.20;;;;;;5122252;27;20063;-64
2023/03/23 01:33:44;;;;;;;12.73;1.60;;;19.40;45.70;;;;;;5124073;27;20079;-64
2023/03/23 01:36:14;;;;;;;4.20;1.30;;;19.30;45.90;;;;;;5125518;27;20160;-62
2023/03/23 01:38:43;;;;;;;16.10;3.20;;;19.30;46.10;;;;;;5126580;27;20559;-59
2023/03/23 01:41:10;;;;;;;7.63;1.63;;;19.20;46.10;;;;;;5125214;27;20071;-62
2023/03/23 01:43:53;;;;;;;12.15;1.67;;;19.10;46.20;;;;;;5122264;27;20098;-61
2023/03/23 01:46:22;;;;;;;5.65;1.20;;;19.10;46.30;;;;;;5123479;27;20075;-64
2023/03/23 01:48:50;;;;;;;5.88;1.60;;;19.00;46.60;;;;;;5122836;27;20071;-63
2023/03/23 01:51:19;;;;;;;5.10;1.67;;;19.00;47.00;;;;;;5124960;27;20532;-62
2023/03/23 01:53:54;;;;;;;7.20;1.95;;;18.80;47.10;;;;;;5122295;27;20087;-61
2023/03/23 01:56:25;;;;;;;6.65;2.33;;;18.80;47.60;;;;;;5119308;27;20076;-62
2023/03/23 01:58:55;;;;;;;9.93;3.13;;;18.70;47.90;;;;;;5120013;27;20059;-62
2023/03/23 02:01:21;;;;;;;8.63;3.53;;;18.60;48.20;;;;;;5124203;27;20091;-61
2023/03/23 02:03:49;;;;;;;5.43;2.83;;;18.50;48.20;;;;;;5123648;27;20118;-60
2023/03/23 02:06:15;;;;;;;9.57;2.40;;;18.50;48.30;;;;;;5123748;27;20066;-61
2023/03/23 02:08:43;;;;;;;5.90;2.17;;;18.40;47.90;;;;;;5123924;27;20433;-63
2023/03/23 02:11:15;;;;;;;6.53;1.88;;;18.40;47.50;;;;;;5123466;27;20063;-59
2023/03/23 02:13:43;;;;;;;8.90;2.25;;;18.30;48.00;;;;;;5114496;27;20071;-60
2023/03/23 02:16:26;;;;;;;4.20;1.45;;;18.30;47.20;;;;;;5107697;27;20067;-64
2023/03/23 02:19:07;;;;;;;6.65;1.65;;;18.20;47.10;;;;;;5119160;27;20589;-61
2023/03/23 02:21:43;;;;;;;9.35;2.03;;;18.20;47.00;;;;;;5118960;27;20126;-59
2023/03/23 02:24:34;;;;;;;9.85;1.75;;;18.20;47.40;;;;;;5119557;27;20079;-62
2023/03/23 02:27:21;;;;;;;4.78;1.20;;;18.10;47.60;;;;;;5115014;27;20085;-61
2023/03/23 02:29:56;;;;;;;5.00;1.80;;;18.10;47.90;;;;;;5122810;27;20070;-62
2023/03/23 02:32:48;;;;;;;4.45;1.40;;;18.00;48.30;;;;;;5122836;27;20563;-63
2023/03/23 02:35:23;;;;;;;6.22;1.55;;;17.90;48.80;;;;;;5106206;27;20202;-63
2023/03/23 02:37:57;;;;;;;6.22;1.45;;;17.80;49.80;;;;;;5116239;27;20105;-61
2023/03/23 02:40:41;;;;;;;10.40;2.08;;;17.80;50.20;;;;;;5115508;27;20195;-63
2023/03/23 02:43:12;;;;;;;5.28;1.65;;;17.80;50.20;;;;;;5119370;27;20082;-63
2023/03/23 02:45:40;;;;;;;9.50;2.20;;;17.60;50.50;;;;;;5107633;27;20087;-62
2023/03/23 02:48:09;;;;;;;6.35;1.63;;;17.50;50.50;;;;;;5121469;27;20080;-60
2023/03/23 02:50:38;;;;;;;15.18;1.65;;;17.40;50.90;;;;;;5116996;27;20139;-61
2023/03/23 02:53:08;;;;;;;5.32;1.20;;;17.40;50.70;;;;;;5118626;27;20096;-61
2023/03/23 02:55:41;;;;;;;12.15;1.30;;;17.20;51.10;;;;;;5115118;27;20119;-61
2023/03/23 02:58:09;;;;;;;6.47;1.65;;;17.20;51.10;;;;;;5116215;27;20507;-61
2023/03/23 03:00:37;;;;;;;5.30;1.60;;;17.20;51.00;;;;;;5121533;27;20098;-62
2023/03/23 03:03:05;;;;;;;9.52;1.42;;;17.10;51.20;;;;;;5123544;27;20674;-61
2023/03/23 03:05:47;;;;;;;12.05;2.05;;;17.00;51.50;;;;;;5122674;27;20153;-63
2023/03/23 03:08:31;;;;;;;5.15;1.70;;;17.00;51.80;;;;;;5114972;27;20091;-63
2023/03/23 03:11:02;;;;;;;5.47;1.80;;;17.00;52.10;;;;;;5120053;27;20088;-64
2023/03/23 03:13:38;;;;;;;7.75;1.70;;;17.00;52.30;;;;;;5112415;27;20078;-62
2023/03/23 03:16:10;;;;;;;9.05;2.05;;;16.90;52.20;;;;;;5117742;27;20084;-59
2023/03/23 03:18:45;;;;;;;8.23;1.70;;;16.90;52.40;;;;;;5119330;27;20083;-60
2023/03/23 03:21:14;;;;;;;6.22;1.50;;;16.80;52.40;;;;;;5128848;27;20491;-61
2023/03/23 03:23:43;;;;;;;12.93;2.33;;;16.80;52.70;;;;;;5119618;27;20624;-62
2023/03/23 03:26:17;;;;;;;4.20;1.60;;;16.80;53.20;;;;;;5115388;28;20072;-59
2023/03/23 03:28:47;;;;;;;6.60;1.55;;;16.80;53.30;;;;;;5116166;27;20080;-61
2023/03/23 03:31:17;;;;;;;7.25;2.00;;;16.80;53.50;;;;;;5117497;27;20067;-61
2023/03/23 03:33:44;;;;;;;8.70;1.80;;;16.70;53.50;;;;;;5114548;27;20195;-62
2023/03/23 03:36:17;;;;;;;9.98;1.80;;;16.70;53.80;;;;;;5114570;27;20101;-60
2023/03/23 03:38:46;;;;;;;10.48;2.10;;;16.60;53.90;;;;;;5115401;27;20130;-62
2023/03/23 03:41:13;;;;;;;13.60;1.77;;;16.60;54.20;;;;;;5118706;28;20088;-62
2023/03/23 03:43:40;;;;;;;12.05;2.28;;;16.70;54.30;;;;;;5104012;28;20095;-59
2023/03/23 03:46:06;;;;;;;18.00;2.17;;;16.60;54.30;;;;;;5114947;28;20441;-61
2023/03/23 03:48:34;;;;;;;7.85;1.77;;;16.60;54.30;;;;;;5102909;28;20547;-61
2023/03/23 03:51:01;;;;;;;7.90;1.98;;;16.50;54.50;;;;;;5114766;28;20067;-62
2023/03/23 03:53:27;;;;;;;8.25;1.90;;;16.50;54.50;;;;;;5114877;28;20590;-61
2023/03/23 03:55:59;;;;;;;9.65;1.95;;;16.50;54.50;;;;;;5118433;27;20196;-63
2023/03/23 03:58:31;;;;;;;6.32;1.55;;;16.50;54.60;;;;;;5119169;27;20559;-61
2023/03/23 04:01:00;;;;;;;11.25;3.05;;;16.40;54.70;;;;;;5118794;27;20101;-64
2023/03/23 04:03:27;;;;;;;13.65;4.13;;;16.40;54.40;;;;;;5118442;27;20106;-62
2023/03/23 04:05:55;;;;;;;6.85;1.85;;;16.40;54.40;;;;;;5124443;27;20063;-58
2023/03/23 04:08:26;;;;;;;10.23;1.80;;;16.40;54.40;;;;;;5121535;27;20084;-60
2023/03/23 04:10:53;;;;;;;11.10;2.63;;;16.30;54.50;;;;;;5122684;27;20083;-59
2023/03/23 04:13:20;;;;;;;10.02;1.88;;;16.30;54.90;;;;;;5121298;27;20452;-62
2023/03/23 04:15:47;;;;;;;12.73;3.65;;;16.30;55.20;;;;;;5105326;27;20111;-62
2023/03/23 04:18:17;;;;;;;8.73;2.10;;;16.30;55.30;;;;;;5126519;27;20521;-61
2023/03/23 04:20:48;;;;;;;11.88;2.15;;;16.20;55.20;;;;;;5118744;27;20087;-63
2023/03/23 04:23:21;;;;;;;13.38;3.25;;;16.10;55.50;;;;;;5116443;27;20092;-63
2023/03/23 04:25:49;;;;;;;10.68;2.60;;;16.20;55.60;;;;;;5117196;27;20077;-64
2023/03/23 04:28:18;;;;;;;7.18;2.45;;;16.00;56.00;;;;;;5117011;27;20336;-61
2023/03/23 04:30:48;;;;;;;11.45;2.47;;;16.00;56.40;;;;;;5117334;27;20063;-63
2023/03/23 04:33:15;;;;;;;11.10;2.85;;;16.00;56.60;;;;;;5120525;27;20074;-62
2023/03/23 04:35:45;;;;;;;7.30;2.50;;;16.00;56.80;;;;;;5121229;27;20543;-61
2023/03/23 04:38:13;;;;;;;5.90;2.00;;;16.00;57.00;;;;;;5116650;27;20112;-63
2023/03/23 04:40:42;;;;;;;7.65;1.60;;;15.90;57.30;;;;;;5120383;27;20464;-63
2023/03/23 04:43:08;;;;;;;9.48;1.98;;;15.90;57.70;;;;;;5122752;27;20084;-61
2023/03/23 04:45:37;;;;;;;8.18;2.63;;;15.80;57.90;;;;;;5116785;27;20071;-66
2023/03/23 04:48:04;;;;;;;4.90;1.83;;;15.80;58.30;;;;;;5115668;27;20068;-64
2023/03/23 04:50:33;;;;;;;10.15;2.30;;;15.80;58.50;;;;;;5116902;27;20089;-60
2023/03/23 04:53:03;;;;;;;7.40;1.83;;;15.80;58.70;;;;;;5118657;27;20633;-62
2023/03/23 04:55:38;;;;;;;15.20;2.47;;;15.70;58.90;;;;;;5121926;27;20082;-64
2023/03/23 04:58:07;;;;;;;5.65;2.00;;;15.70;59.10;;;;;;5115970;27;20098;-63
2023/03/23 05:00:36;;;;;;;6.80;1.50;;;15.60;59.30;;;;;;5118945;27;20083;-62
2023/03/23 05:03:02;;;;;;;12.40;2.17;;;15.70;59.50;;;;;;5121401;27;20096;-63
2023/03/23 05:05:30;;;;;;;10.05;1.50;;;15.60;59.50;;;;;;5127699;27;20067;-62
2023/03/23 05:07:56;;;;;;;9.70;1.83;;;15.70;60.20;;;;;;5122375;27;20110;-62
2023/03/23 05:10:23;;;;;;;13.05;2.13;;;15.60;61.40;;;;;;5122381;27;20090;-63
2023/03/23 05:12:50;;;;;;;10.98;2.22;;;15.50;61.80;;;;;;5112687;27;20078;-60
2023/03/23 05:15:17;;;;;;;9.85;2.00;;;15.50;62.40;;;;;;5121190;27;20119;-61
2023/03/23 05:17:44;;;;;;;8.85;2.00;;;15.50;62.70;;;;;;5114220;27;20441;-62
2023/03/23 05:20:14;;;;;;;9.05;1.88;;;15.30;63.80;;;;;;5119326;27;20531;-61
2023/03/23 05:22:44;;;;;;;8.95;1.92;;;15.20;64.50;;;;;;5116165;27;20788;-59
2023/03/23 05:25:11;;;;;;;10.98;2.25;;;15.20;65.00;;;;;;5114422;27;20171;-62
2023/03/23 05:27:48;;;;;;;13.07;2.80;;;15.20;65.50;;;;;;5120673;27;20072;-60
2023/03/23 05:30:16;;;;;;;13.38;2.65;;;15.10;65.60;;;;;;5119433;27;20064;-62
2023/03/23 05:32:44;;;;;;;9.25;2.30;;;15.10;65.90;;;;;;5127409;27;20094;-61
2023/03/23 05:35:12;;;;;;;9.10;1.70;;;15.10;66.00;;;;;;5130562;27;20528;-63
2023/03/23 05:37:39;;;;;;;13.32;2.30;;;15.10;65.80;;;;;;5115736;27;20120;-61
2023/03/23 05:40:06;;;;;;;11.65;2.70;;;15.00;65.90;;;;;;5119098;27;20065;-61
2023/03/23 05:42:34;;;;;;;9.07;2.08;;;15.00;66.20;;;;;;5118634;27;20092;-64
2023/03/23 05:45:02;;;;;;;6.93;1.85;;;15.00;66.50;;;;;;5125033;27;20370;-61
2023/03/23 05:47:30;;;;;;;7.95;2.00;;;14.90;66.90;;;;;;5121414;27;20090;-63
2023/03/23 05:49:57;;;;;;;8.30;2.40;;;15.00;67.00;;;;;;5117959;27;20076;-63
2023/03/23 05:52:24;;;;;;;8.55;2.38;;;14.90;66.80;;;;;;5117428;27;20075;-63
2023/03/23 05:54:51;;;;;;;7.20;2.45;;;14.90;66.70;;;;;;5118941;27;20083;-62
2023/03/23 05:57:18;;;;;;;12.32;3.72;;;15.00;66.70;;;;;;5123023;27;20072;-63
2023/03/23 05:59:45;;;;;;;21.65;9.07;;;15.00;66.10;;;;;;5117208;27;20155;-62
2023/03/23 06:02:13;;;;;;;11.07;3.40;;;15.00;65.60;;;;;;5119489;27;20068;-62
2023/03/23 06:04:40;;;;;;;9.10;2.13;;;14.90;65.30;;;;;;5120570;27;20078;-65
2023/03/23 06:07:13;;;;;;;6.25;1.33;;;15.00;65.20;;;;;;5123263;27;20068;-62
2023/03/23 06:09:41;;;;;;;5.65;1.40;;;15.00;65.30;;;;;;5124014;27;20489;-62
2023/03/23 06:12:09;;;;;;;8.15;2.40;;;14.90;65.70;;;;;;5122989;27;20075;-62
2023/03/23 06:14:36;;;;;;;8.05;2.25;;;14.90;65.70;;;;;;5105156;27;20096;-62
2023/03/23 06:17:03;;;;;;;5.82;1.40;;;14.90;65.50;;;;;;5122832;27;20072;-62
2023/03/23 06:19:29;;;;;;;7.25;1.52;;;14.90;65.50;;;;;;5123460;27;20151;-61
2023/03/23 06:21:56;;;;;;;;;;;14.90;65.50;;;;;;5123538;27;20067;-62
2023/03/23 06:24:22;;;;;;;6.30;1.40;;;14.90;65.00;;;;;;5121486;27;20034;-60
2023/03/23 06:26:49;;;;;;;6.63;2.10;;;14.90;64.80;;;;;;5120690;27;20095;-60
2023/03/23 06:29:18;;;;;;;7.93;1.90;;;14.90;65.00;;;;;;5123159;27;20477;-60
2023/03/23 06:31:51;;;;;;;5.32;1.40;;;15.00;65.40;;;;;;5123615;27;20076;-61
2023/03/23 06:34:18;;;;;;;3.45;1.30;;;15.00;65.90;;;;;;5123072;27;20560;-60
2023/03/23 06:36:44;;;;;;;3.28;1.05;;;14.90;67.40;;;;;;5121247;27;20115;-60
2023/03/23 06:39:10;;;;;;;;;;;14.80;70.60;;;;;;5118382;27;20107;-60
2023/03/23 06:41:37;;;;;;;9.63;1.98;;;14.70;71.50;;;;;;5119306;27;19971;-60
2023/03/23 06:44:03;;;;;;;5.53;1.25;;;14.70;71.80;;;;;;5121314;27;20111;-61
2023/03/23 06:46:29;;;;;;;;;;;14.50;72.50;;;;;;5121754;27;20491;-60
2023/03/23 06:48:57;;;;;;;4.55;1.38;;;14.40;73.30;;;;;;5118334;27;20025;-61
2023/03/23 06:51:23;;;;;;;6.45;1.45;;;14.40;73.60;;;;;;5120522;27;20079;-60
2023/03/23 06:53:49;;;;;;;;;;;14.20;73.60;;;;;;5121146;27;20504;-61
2023/03/23 06:56:16;;;;;;;4.32;1.30;;;14.20;74.10;;;;;;5118231;27;19956;-60
2023/03/23 06:58:42;;;;;;;5.90;1.63;;;14.20;73.90;;;;;;5122052;27;20076;-60
2023/03/23 07:01:09;;;;;;;;;;;14.20;73.70;;;;;;5123078;27;21033;-60
2023/03/23 07:03:36;;;;;;;7.07;1.20;;;14.20;73.50;;;;;;5119950;27;19972;-61
2023/03/23 07:06:03;;;;;;;4.35;0.90;;;14.20;73.70;;;;;;5119578;27;20158;-60
2023/03/23 07:08:30;;;;;;;5.45;1.38;;;14.20;73.90;;;;;;5104751;27;20103;-61
2023/03/23 07:10:57;;;;;;;5.55;1.42;;;14.10;74.20;;;;;;5121955;27;20069;-60
2023/03/23 07:13:24;;;;;;;5.90;1.40;;;14.20;74.40;;;;;;5119689;27;20092;-60
2023/03/23 07:15:51;;;;;;;6.35;1.25;;;14.10;74.40;;;;;;5118110;27;20216;-62
2023/03/23 07:18:18;;;;;;;3.85;1.13;;;14.00;74.80;;;;;;5118048;27;20128;-60
2023/03/23 07:20:49;;;;;;;4.57;1.13;;;14.00;75.00;;;;;;5107993;28;20180;-61
2023/03/23 07:23:15;;;;;;;6.32;1.50;;;14.00;75.10;;;;;;5118859;27;20116;-62
2023/03/23 07:25:41;;;;;;;;;;;14.00;74.50;;;;;;5122484;27;20091;-63
2023/03/23 07:28:07;;;;;;;4.90;1.20;;;14.10;74.30;;;;;;5120215;27;20429;-58
2023/03/23 07:30:34;;;;;;;4.78;1.05;;;14.10;74.30;;;;;;5120661;27;20071;-60
2023/03/23 07:33:08;;;;;;;3.15;0.90;;;14.10;74.30;;;;;;5121523;27;20127;-61
2023/03/23 07:35:35;;;;;;;5.50;1.27;;;14.10;74.60;;;;;;5119500;27;20071;-62
2023/03/23 07:38:03;;;;;;;4.35;1.23;;;14.20;74.90;;;;;;5105778;28;20520;-62
2023/03/23 07:40:33;;;;;;;4.30;1.02;;;14.10;74.90;;;;;;5121988;27;20083;-60
2023/03/23 07:43:00;;;;;;;3.13;1.15;;;14.20;75.00;;;;;;5119596;27;20102;-61
2023/03/23 07:45:27;;;;;;;5.03;1.17;;;14.10;75.30;;;;;;5119099;28;20086;-60
2023/03/23 07:47:54;;;;;;;4.18;0.90;;;14.10;75.40;;;;;;5118295;28;20079;-61
2023/03/23 07:50:24;;;;;;;5.78;1.35;;;14.20;75.60;;;;;;5117338;28;20063;-59
2023/03/23 07:52:53;;;;;;;2.75;1.10;;;14.10;75.80;;;;;;5122047;28;20102;-60
2023/03/23 07:55:20;;;;;;;5.13;1.13;;;14.00;76.00;;;;;;5120076;28;20567;-61
2023/03/23 07:57:48;;;;;;;5.10;1.20;;;14.00;76.80;;;;;;5119628;28;20107;-61
2023/03/23 08:00:20;;;;;;;6.30;1.10;;;14.00;77.10;;;;;;5123052;27;20196;-61
2023/03/23 08:02:50;;;;;;;3.63;1.17;;;13.90;77.50;;;;;;5122482;28;20100;-60
2023/03/23 08:05:18;;;;;;;6.63;1.33;;;13.90;77.50;;;;;;5117572;28;20073;-61
2023/03/23 08:07:45;;;;;;;4.00;1.10;;;13.90;77.80;;;;;;5099773;28;20080;-62
2023/03/23 08:10:14;;;;;;;4.00;1.10;;;13.90;77.70;;;;;;5122617;28;20068;-58
2023/03/23 08:12:42;;;;;;;4.55;1.35;;;13.80;77.80;;;;;;5118573;28;20072;-61
2023/03/23 08:15:17;;;;;;;6.82;1.50;;;13.80;77.90;;;;;;5117218;28;20098;-62
2023/03/23 08:17:44;;;;;;;4.65;1.10;;;13.80;78.40;;;;;;5117401;28;20120;-58
2023/03/23 08:20:12;;;;;;;4.28;1.33;;;13.80;78.50;;;;;;5118179;28;20158;-63
2023/03/23 08:22:44;;;;;;;8.60;1.38;;;13.70;78.70;;;;;;5116870;28;20565;-61
2023/03/23 08:25:14;;;;;;;4.90;1.50;;;13.70;78.90;;;;;;5121581;28;20520;-60
2023/03/23 08:27:43;;;;;;;5.18;2.00;;;13.60;79.30;;;;;;5118082;28;20087;-60
2023/03/23 08:30:13;;;;;;;5.85;1.67;;;13.50;79.80;;;;;;5117833;28;20079;-62
2023/03/23 08:32:39;;;;;;;5.78;1.20;;;13.50;80.00;;;;;;5119607;28;20143;-62
2023/03/23 08:35:08;;;;;;;4.90;1.00;;;13.60;79.30;;;;;;5117964;28;20113;-61
2023/03/23 08:37:35;;;;;;;3.88;1.10;;;13.60;78.60;;;;;;5115652;28;20473;-56
2023/03/23 08:40:09;;;;;;;5.10;1.23;;;13.70;78.70;;;;;;5119247;27;20088;-61
2023/03/23 08:42:42;;;;;;;2.67;0.82;;;13.70;78.60;;;;;;5123199;27;20472;-58
2023/03/23 08:45:11;;;;;;;5.53;1.40;;;13.70;78.10;;;;;;5122130;27;20060;-62
2023/03/23 08:47:38;;;;;;;2.50;0.98;;;13.80;78.10;;;;;;5123697;27;20080;-63
2023/03/23 08:50:06;;;;;;;4.07;1.10;;;13.70;77.80;;;;;;5121087;27;20072;-61
2023/03/23 08:52:33;;;;;;;3.45;0.98;;;13.80;77.80;;;;;;5122069;27;20534;-61
2023/03/23 08:55:03;;;;;;;8.02;1.10;;;13.80;77.50;;;;;;5123767;27;20078;-62
2023/03/23 08:57:29;;;;;;;2.13;0.80;;;13.90;77.30;;;;;;5121525;27;20075;-60
2023/03/23 09:00:00;;;;;;;1.38;0.50;;;13.90;77.30;;;;;;5122082;27;20075;-59
2023/03/23 09:02:30;;;;;;;2.08;0.70;;;13.80;77.50;;;;;;5121500;27;20467;-61
2023/03/23 09:04:57;;;;;;;1.52;0.73;;;13.80;77.70;;;;;;5119703;27;20068;-61
2023/03/23 09:07:23;;;;;;;;;;;13.80;78.00;;;;;;5122139;27;20088;-62
2023/03/23 09:09:50;;;;;;;1.42;0.70;;;13.80;78.10;;;;;;5120468;27;19963;-61
2023/03/23 09:12:16;;;;;;;;;;;13.70;78.40;;;;;;5120406;27;20141;-62
2023/03/23 09:14:43;;;;;;;1.00;0.60;;;13.80;78.70;;;;;;5122952;27;20418;-61
2023/03/23 09:17:10;;;;;;;;;;;13.80;78.70;;;;;;5121898;27;20078;-62
2023/03/23 09:19:36;;;;;;;1.98;0.70;;;13.80;78.60;;;;;;5121661;27;20412;-59
2023/03/23 09:22:03;;;;;;;3.08;1.00;;;13.70;78.70;;;;;;5119621;27;20076;-60
2023/03/23 09:24:31;;;;;;;3.33;1.05;;;13.70;78.60;;;;;;5120241;27;20083;-61
2023/03/23 09:26:58;;;;;;;2.33;1.33;;;13.70;78.30;;;;;;5120574;27;20144;-61
2023/03/23 09:29:26;;;;;;;2.92;1.30;;;13.70;78.30;;;;;;5122161;27;20068;-63
2023/03/23 09:31:54;;;;;;;2.35;1.10;;;13.70;78.20;;;;;;5121996;27;20098;-62
2023/03/23 09:34:20;;;;;;;5.63;1.05;;;13.70;77.90;;;;;;5123134;27;20624;-61
2023/03/23 09:36:48;;;;;;;4.63;1.33;;;13.70;77.40;;;;;;5122983;27;20103;-59
2023/03/23 09:39:15;;;;;;;2.90;1.00;;;13.70;77.00;;;;;;5119774;27;20115;-62
2023/03/23 09:41:49;;;;;;;1.55;0.73;;;13.70;76.80;;;;;;5123259;27;20559;-62
2023/03/23 09:44:21;;;;;;;2.70;1.08;;;13.70;76.80;;;;;;5120093;27;20084;-60
2023/03/23 09:46:50;;;;;;;3.83;0.75;;;13.70;76.30;;;;;;5124586;27;20131;-61
2023/03/23 09:49:25;;;;;;;4.13;0.90;;;13.80;76.10;;;;;;5120991;27;20561;-60
2023/03/23 09:52:16;;;;;;;5.05;0.55;;;13.70;76.10;;;;;;5118949;27;20070;-61
2023/03/23 09:55:01;;;;;;;2.80;0.73;;;13.70;75.90;;;;;;5120414;27;20092;-62
2023/03/23 09:57:52;;;;;;;4.47;0.90;;;13.70;75.70;;;;;;5122413;27;20090;-61
2023/03/23 10:00:35;;;;;;;1.15;0.50;;;13.70;75.40;;;;;;5117309;27;20083;-59
2023/03/23 10:03:20;;;;;;;4.03;0.90;;;13.70;75.50;;;;;;5123278;27;20455;-60
2023/03/23 10:05:49;;;;;;;1.33;0.63;;;13.60;75.50;;;;;;5118203;27;20088;-60
2023/03/23 10:08:19;;;;;;;1.65;0.75;;;13.60;75.80;;;;;;5118915;27;20567;-59
2023/03/23 10:11:19;;;;;;;2.17;1.10;;;13.60;75.90;;;;;;5121955;27;20502;-62
2023/03/23 10:14:25;;;;;;;3.00;0.80;;;13.60;75.50;;;;;;5117168;27;20541;-60
2023/03/23 10:17:33;;;;;;;2.58;0.77;;;13.60;75.50;;;;;;5109774;27;20494;-61
2023/03/23 10:20:20;;;;;;;2.60;0.93;;;13.60;75.70;;;;;;5043909;28;20092;-61
2023/03/23 10:23:05;;;;;;;2.88;0.70;;;13.60;76.00;;;;;;5044979;28;20184;-62
2023/03/23 10:25:36;;;;;;;1.35;0.70;;;13.50;76.00;;;;;;5042045;28;20419;-60
2023/03/23 10:28:12;;;;;;;1.30;0.65;;;13.60;76.00;;;;;;5045023;28;20066;-61
2023/03/23 10:30:45;;;;;;;1.45;0.77;;;13.60;76.00;;;;;;5044781;28;20212;-61
2023/03/23 10:33:17;;;;;;;3.22;0.57;;;13.60;76.00;;;;;;5041635;28;20078;-61
2023/03/23 10:36:05;;;;;;;2.38;0.60;;;13.50;75.90;;;;;;5042018;28;20457;-63
2023/03/23 10:38:39;;;;;;;0.90;0.68;;;13.50;75.90;;;;;;5043369;28;20105;-60
2023/03/23 10:41:11;;;;;;;3.42;0.90;;;13.50;75.70;;;;;;5045546;28;20103;-61
2023/03/23 10:43:42;;;;;;;1.88;0.80;;;13.50;75.90;;;;;;5043096;28;20102;-62
2023/03/23 10:46:41;;;;;;;1.38;0.80;;;13.50;75.80;;;;;;5043459;28;20152;-61
2023/03/23 10:49:14;;;;;;;2.28;0.88;;;13.50;75.60;;;;;;5041819;28;20569;-60
2023/03/23 10:51:44;;;;;;;2.08;1.05;;;13.50;75.70;;;;;;5044681;28;20165;-61
2023/03/23 10:54:11;;;;;;;2.30;0.63;;;13.60;75.90;;;;;;5043672;28;20069;-63
2023/03/23 10:56:39;;;;;;;;;;;13.60;75.60;;;;;;5089637;27;20441;-61
2023/03/23 10:59:27;;;;;;;2.95;0.60;;;13.50;75.50;;;;;;5119816;27;19959;-61
2023/03/23 11:01:57;;;;;;;2.92;0.70;;;13.40;75.80;;;;;;5121426;27;20076;-60
2023/03/23 11:04:24;;;;;;;1.95;0.60;;;13.50;76.20;;;;;;5122349;27;20218;-62
2023/03/23 11:06:53;;;;;;;1.75;0.50;;;13.40;76.00;;;;;;5120151;27;20071;-61
2023/03/23 11:09:22;;;;;;;2.15;0.65;;;13.40;75.80;;;;;;5121013;27;20084;-62
2023/03/23 11:11:52;;;;;;;1.80;0.70;;;13.40;75.70;;;;;;5119621;27;20448;-61
2023/03/23 11:14:27;;;;;;;2.60;0.80;;;13.30;76.20;;;;;;5118970;27;20072;-62
2023/03/23 11:16:57;;;;;;;2.17;0.82;;;13.30;76.20;;;;;;5120842;27;20071;-63
2023/03/23 11:19:32;;;;;;;4.45;1.05;;;13.20;76.00;;;;;;5120438;27;20448;-61
2023/03/23 11:22:26;;;;;;;2.25;0.90;;;13.20;76.40;;;;;;5105933;27;20079;-63
2023/03/23 11:25:03;;;;;;;2.30;0.90;;;13.20;76.40;;;;;;5125582;27;20075;-61
2023/03/23 11:27:30;;;;;;;3.67;1.38;;;13.20;76.80;;;;;;5116605;27;20087;-61
2023/03/23 11:30:23;;;;;;;3.17;1.10;;;13.20;76.80;;;;;;5120941;27;20087;-60
2023/03/23 11:32:52;;;;;;;4.07;1.30;;;13.10;76.80;;;;;;5108682;27;20548;-61
2023/03/23 11:35:22;;;;;;;5.97;1.10;;;13.10;77.10;;;;;;5116415;27;20091;-61
2023/03/23 11:37:59;;;;;;;4.30;1.45;;;13.10;77.20;;;;;;5116826;27;20207;-60
2023/03/23 11:40:31;;;;;;;8.65;1.40;;;13.10;78.00;;;;;;5118189;27;20086;-61
2023/03/23 11:43:15;;;;;;;7.65;1.55;;;13.10;77.40;;;;;;5120183;27;20103;-60
2023/03/23 11:45:52;;;;;;;5.18;1.30;;;13.10;77.30;;;;;;5118723;28;20114;-62
2023/03/23 11:48:36;;;;;;;;;;;13.10;77.40;;;;;;5116753;28;20128;-62
2023/03/23 11:51:14;;;;;;;6.93;1.55;;;13.10;77.20;;;;;;5117134;28;19959;-61
2023/03/23 11:54:13;;;;;;;6.70;1.40;;;13.10;77.20;;;;;;5118343;28;20075;-61
2023/03/23 11:56:42;;;;;;;7.13;1.80;;;13.20;77.10;;;;;;5105766;28;20115;-61
2023/03/23 11:59:18;;;;;;;6.57;1.40;;;13.10;77.00;;;;;;5120923;28;20207;-61
2023/03/23 12:02:29;;;;;;;5.53;1.40;;;13.10;76.90;;;;;;5120853;28;20102;-62
2023/03/23 12:05:26;;;;;;;10.27;1.50;;;13.20;77.00;;;;;;5114799;28;20084;-59
2023/03/23 12:08:06;;;;;;;5.75;1.80;;;13.10;76.90;;;;;;5118999;28;20200;-59
2023/03/23 12:10:58;;;;;;;5.78;1.50;;;13.10;77.00;;;;;;5120586;28;20080;-60
2023/03/23 12:13:52;;;;;;;6.13;1.63;;;13.10;77.10;;;;;;5117469;28;20549;-60
2023/03/23 12:16:28;;;;;;;7.68;1.58;;;13.10;76.80;;;;;;5118397;27;20185;-60
2023/03/23 12:19:03;;;;;;;7.03;1.67;;;13.10;76.90;;;;;;5122974;27;20127;-63
2023/03/23 12:21:51;;;;;;;6.10;1.35;;;13.20;77.20;;;;;;5121346;27;20143;-61
2023/03/23 12:24:39;;;;;;;6.90;1.80;;;13.10;77.30;;;;;;5120474;27;20096;-61
2023/03/23 12:27:11;;;;;;;5.43;1.63;;;13.10;77.50;;;;;;5123415;27;20529;-60
2023/03/23 12:30:03;;;;;;;7.07;1.65;;;13.10;77.70;;;;;;5122011;27;20072;-58
2023/03/23 12:32:50;;;;;;;5.57;1.83;;;13.10;77.90;;;;;;5121734;27;20075;-59
2023/03/23 12:35:33;;;;;;;7.10;2.13;;;13.00;78.10;;;;;;5121667;27;20127;-59
2023/03/23 12:38:20;;;;;;;9.70;1.65;;;13.00;78.60;;;;;;5121555;27;20108;-60
2023/03/23 12:40:59;;;;;;;7.30;2.05;;;13.00;78.80;;;;;;5121102;27;20091;-59
2023/03/23 12:43:50;;;;;;;8.65;2.10;;;12.90;79.00;;;;;;5125481;27;20497;-61
2023/03/23 12:46:38;;;;;;;8.02;1.52;;;12.90;79.40;;;;;;5124739;27;20525;-60
2023/03/23 12:49:19;;;;;;;7.70;1.88;;;12.90;79.60;;;;;;5120836;27;20151;-59
2023/03/23 12:51:55;;;;;;;9.45;2.10;;;12.90;79.80;;;;;;5122295;27;20076;-61
2023/03/23 12:54:36;;;;;;;7.23;1.80;;;12.90;79.90;;;;;;5123624;27;20496;-61
2023/03/23 12:57:17;;;;;;;12.02;2.17;;;12.90;80.00;;;;;;5124283;27;20075;-61
2023/03/23 13:00:00;;;;;;;6.75;1.85;;;12.90;80.40;;;;;;5120303;27;20110;-60
2023/03/23 13:02:39;;;;;;;7.18;1.63;;;12.80;80.60;;;;;;5123866;27;20067;-60
2023/03/23 13:05:24;;;;;;;12.02;1.83;;;12.80;80.30;;;;;;5122042;27;20079;-62
2023/03/23 13:08:21;;;;;;;10.70;2.15;;;12.90;80.10;;;;;;5121779;27;20086;-61
2023/03/23 13:10:49;;;;;;;7.20;1.70;;;12.80;79.40;;;;;;5123643;27;20115;-62
2023/03/23 13:13:26;;;;;;;9.02;2.00;;;12.90;78.70;;;;;;5116971;27;20076;-60